Time;durP1;ratioP1;P1;durP2;ratioP2;P2;SDS_P1;SDS_P2;PMS_P1;PMS_P2;Temp;Humidity;BMP_temperature;BMP_pressure;BME280_temperature;BME280_humidity;BME280_pressure;Samples;Min_cycle;Max_cycle;Signal;HPM_P1;HPM_P2
2024/01/25 00:00:41;;;;;;;8.23;0.93;;;;;;;;;;5102873;28;20035;-75
2024/01/25 00:03:12;;;;;;;3.58;0.70;;;;;;;;;;5100600;28;20063;-75
2024/01/25 00:05:44;;;;;;;7.25;1.35;;;;;;;;;;5101136;28;20051;-75
2024/01/25 00:08:15;;;;;;;5.15;1.02;;;;;;;;;;5103093;28;20047;-75
2024/01/25 00:10:46;;;;;;;7.03;1.13;;;;;;;;;;5102439;28;20568;-74
2024/01/25 00:13:16;;;;;;;7.20;0.85;;;;;;;;;;5101287;28;20043;-75
2024/01/25 00:15:47;;;;;;;9.52;1.20;;;;;;;;;;5102523;28;20058;-75
2024/01/25 00:18:18;;;;;;;4.22;1.00;;;;;;;;;;5102260;28;20070;-75
2024/01/25 00:20:49;;;;;;;3.28;1.10;;;;;;;;;;5102843;28;20047;-75
2024/01/25 00:23:19;;;;;;;7.88;1.23;;;;;;;;;;5101417;28;20051;-75
2024/01/25 00:25:50;;;;;;;6.90;0.70;;;;;;;;;;5102737;28;20050;-75
2024/01/25 00:28:20;;;;;;;4.13;0.70;;;;;;;;;;5102598;28;20090;-75
2024/01/25 00:30:50;;;;;;;7.50;1.05;;;;;;;;;;5102143;28;20039;-76
2024/01/25 00:33:21;;;;;;;9.55;1.05;;;;;;;;;;5101220;28;20051;-75
2024/01/25 00:35:53;;;;;;;7.30;1.00;;;;;;;;;;5102534;28;20555;-75
2024/01/25 00:38:26;;;;;;;7.13;1.45;;;;;;;;;;5102509;28;20062;-76
2024/01/25 00:40:57;;;;;;;3.70;0.70;;;;;;;;;;5102504;28;20418;-75
2024/01/25 00:43:27;;;;;;;5.75;0.90;;;;;;;;;;5102194;28;21198;-74
2024/01/25 00:45:58;;;;;;;11.18;0.90;;;;;;;;;;5101675;28;20047;-79
2024/01/25 00:48:29;;;;;;;7.38;1.13;;;;;;;;;;5102871;28;20062;-76
2024/01/25 00:51:00;;;;;;;9.68;0.70;;;;;;;;;;5102424;28;20040;-77
2024/01/25 00:53:32;;;;;;;7.45;1.00;;;;;;;;;;5101324;28;20514;-76
2024/01/25 00:56:04;;;;;;;7.47;1.00;;;;;;;;;;5102768;28;20047;-75
2024/01/25 00:58:35;;;;;;;10.63;0.93;;;;;;;;;;5102458;28;20032;-74
2024/01/25 01:01:06;;;;;;;6.15;0.98;;;;;;;;;;5102425;28;20044;-76
2024/01/25 01:03:37;;;;;;;6.90;1.42;;;;;;;;;;5102364;28;20418;-75
2024/01/25 01:06:08;;;;;;;6.50;0.90;;;;;;;;;;5102317;28;20055;-77
2024/01/25 01:08:40;;;;;;;11.57;1.23;;;;;;;;;;5097088;28;20048;-76
2024/01/25 01:11:11;;;;;;;9.30;1.55;;;;;;;;;;5097746;28;20506;-75
2024/01/25 01:13:41;;;;;;;5.57;1.05;;;;;;;;;;5092084;28;20055;-75
2024/01/25 01:16:13;;;;;;;8.55;0.82;;;;;;;;;;5110731;27;20031;-76
2024/01/25 01:18:44;;;;;;;8.82;1.33;;;;;;;;;;5113536;27;20059;-76
2024/01/25 01:21:15;;;;;;;7.97;1.10;;;;;;;;;;5105879;28;20055;-76
2024/01/25 01:23:45;;;;;;;6.00;0.82;;;;;;;;;;5106680;28;20047;-75
2024/01/25 01:26:16;;;;;;;3.42;0.82;;;;;;;;;;5105768;28;20070;-76
2024/01/25 01:28:48;;;;;;;8.15;1.10;;;;;;;;;;5105932;28;20040;-74
2024/01/25 01:31:18;;;;;;;7.32;0.77;;;;;;;;;;5103451;28;20055;-76
2024/01/25 01:33:48;;;;;;;13.05;1.40;;;;;;;;;;5105855;28;20047;-75
2024/01/25 01:36:19;;;;;;;5.88;1.10;;;;;;;;;;5104234;28;20043;-75
2024/01/25 01:38:50;;;;;;;8.45;0.88;;;;;;;;;;5105988;28;20044;-75
2024/01/25 01:41:21;;;;;;;6.65;1.27;;;;;;;;;;5106085;28;20051;-75
2024/01/25 01:43:54;;;;;;;6.13;1.25;;;;;;;;;;5106270;28;20043;-75
2024/01/25 01:46:33;;;;;;;4.65;1.08;;;;;;;;;;5105314;28;20077;-74
2024/01/25 01:49:15;;;;;;;2.88;0.55;;;;;;;;;;5105228;28;20054;-75
2024/01/25 01:51:46;;;;;;;;;;;;;;;;;;5105926;28;20043;-74
2024/01/25 01:54:16;;;;;;;5.97;0.85;;;;;;;;;;5104929;28;19924;-76
2024/01/25 01:56:46;;;;;;;7.22;1.00;;;;;;;;;;5105429;28;20046;-75
2024/01/25 01:59:17;;;;;;;3.45;0.70;;;;;;;;;;5105798;28;20051;-75
2024/01/25 02:01:48;;;;;;;7.28;1.20;;;;;;;;;;5105270;28;20043;-74
2024/01/25 02:04:19;;;;;;;9.38;1.13;;;;;;;;;;5105855;28;20048;-74
2024/01/25 02:06:49;;;;;;;7.65;0.88;;;;;;;;;;5104024;28;20078;-74
2024/01/25 02:09:19;;;;;;;3.90;1.10;;;;;;;;;;5105428;28;20039;-75
2024/01/25 02:12:02;;;;;;;7.95;1.00;;;;;;;;;;5105893;28;20051;-75
2024/01/25 02:14:32;;;;;;;8.88;1.00;;;;;;;;;;5105911;28;20047;-74
2024/01/25 02:17:03;;;;;;;5.35;0.80;;;;;;;;;;5104942;28;20055;-74
2024/01/25 02:19:33;;;;;;;5.13;0.90;;;;;;;;;;5103302;28;20060;-75
2024/01/25 02:22:06;;;;;;;6.18;0.82;;;;;;;;;;5105043;28;20051;-75
2024/01/25 02:24:38;;;;;;;9.27;1.30;;;;;;;;;;5103770;28;20584;-75
2024/01/25 02:27:08;;;;;;;3.08;0.70;;;;;;;;;;5103628;28;20070;-76
2024/01/25 02:29:39;;;;;;;8.35;0.93;;;;;;;;;;5101355;28;20059;-75
2024/01/25 02:32:10;;;;;;;6.53;0.95;;;;;;;;;;5103739;28;20529;-76
2024/01/25 02:34:41;;;;;;;10.85;1.02;;;;;;;;;;5104904;28;20039;-75
2024/01/25 02:37:14;;;;;;;7.72;1.15;;;;;;;;;;5104827;28;20047;-75
2024/01/25 02:39:44;;;;;;;7.28;0.90;;;;;;;;;;5104720;28;20058;-76
2024/01/25 02:42:16;;;;;;;6.50;0.90;;;;;;;;;;5104876;28;20047;-75
2024/01/25 02:44:49;;;;;;;5.28;0.80;;;;;;;;;;5104378;28;20040;-75
2024/01/25 02:47:19;;;;;;;5.70;0.65;;;;;;;;;;5104738;28;20494;-75
2024/01/25 02:49:49;;;;;;;6.43;0.68;;;;;;;;;;5104457;28;20521;-75
2024/01/25 02:52:21;;;;;;;4.25;0.77;;;;;;;;;;5103978;28;20051;-76
2024/01/25 02:54:53;;;;;;;8.30;1.05;;;;;;;;;;5104378;28;20043;-75
2024/01/25 02:57:25;;;;;;;5.38;0.90;;;;;;;;;;5104379;28;20575;-75
2024/01/25 02:59:55;;;;;;;6.32;0.77;;;;;;;;;;5104850;28;20283;-74
2024/01/25 03:02:25;;;;;;;9.13;0.82;;;;;;;;;;5103440;28;20039;-75
2024/01/25 03:04:55;;;;;;;5.18;0.75;;;;;;;;;;5104249;28;20054;-75
2024/01/25 03:07:26;;;;;;;4.93;0.60;;;;;;;;;;5103088;28;20047;-75
2024/01/25 03:09:58;;;;;;;5.18;0.90;;;;;;;;;;5102876;28;20047;-76
2024/01/25 03:12:28;;;;;;;4.80;0.70;;;;;;;;;;5104120;28;20050;-75
2024/01/25 03:14:58;;;;;;;8.05;0.77;;;;;;;;;;5103432;28;20047;-76
2024/01/25 03:17:28;;;;;;;5.07;0.77;;;;;;;;;;5101694;28;20051;-75
2024/01/25 03:20:01;;;;;;;11.63;1.10;;;;;;;;;;5103220;28;20056;-74
2024/01/25 03:22:32;;;;;;;8.40;1.38;;;;;;;;;;5103987;28;20047;-75
2024/01/25 03:25:02;;;;;;;5.72;0.95;;;;;;;;;;5103709;28;20541;-75
2024/01/25 03:27:33;;;;;;;4.22;0.63;;;;;;;;;;5103553;28;20080;-76
2024/01/25 03:30:06;;;;;;;7.45;2.40;;;;;;;;;;5101971;28;20533;-75
2024/01/25 03:32:36;;;;;;;12.75;1.30;;;;;;;;;;5103756;28;20040;-75
2024/01/25 03:35:07;;;;;;;3.30;0.47;;;;;;;;;;5103943;28;20052;-76
2024/01/25 03:37:37;;;;;;;9.25;1.05;;;;;;;;;;5104072;28;20058;-75
2024/01/25 03:40:08;;;;;;;3.42;0.73;;;;;;;;;;5104080;28;20048;-75
2024/01/25 03:42:40;;;;;;;5.47;0.93;;;;;;;;;;5103790;28;20109;-76
2024/01/25 03:45:19;;;;;;;3.58;0.73;;;;;;;;;;5103419;28;20051;-74
2024/01/25 03:47:48;;;;;;;4.20;1.20;;;;;;;;;;5103522;28;20774;-76
2024/01/25 03:50:20;;;;;;;8.90;0.90;;;;;;;;;;5102931;28;20048;-74
2024/01/25 03:52:51;;;;;;;7.78;0.82;;;;;;;;;;5103083;28;20047;-76
2024/01/25 03:55:22;;;;;;;7.90;1.27;;;;;;;;;;5101817;28;20052;-76
2024/01/25 03:57:52;;;;;;;8.30;0.80;;;;;;;;;;5102975;28;20039;-74
2024/01/25 04:00:24;;;;;;;4.75;0.90;;;;;;;;;;5102749;28;20052;-76
2024/01/25 04:02:55;;;;;;;6.93;1.15;;;;;;;;;;5102732;28;20051;-76
2024/01/25 04:05:26;;;;;;;8.77;1.17;;;;;;;;;;5103041;28;20047;-74
2024/01/25 04:07:56;;;;;;;6.20;0.90;;;;;;;;;;5101812;28;20047;-77
2024/01/25 04:10:27;;;;;;;11.75;1.33;;;;;;;;;;5103147;28;20055;-74
2024/01/25 04:13:04;;;;;;;8.07;1.00;;;;;;;;;;5102847;28;20048;-75
2024/01/25 04:15:34;;;;;;;;;;;;;;;;;;5103873;28;20047;-76
2024/01/25 04:18:04;;;;;;;4.30;0.80;;;;;;;;;;5102414;28;19930;-75
2024/01/25 04:20:35;;;;;;;8.43;1.08;;;;;;;;;;5103535;28;20721;-75
2024/01/25 04:23:07;;;;;;;6.82;1.02;;;;;;;;;;5103016;28;20482;-75
2024/01/25 04:25:38;;;;;;;11.75;1.73;;;;;;;;;;5102580;28;20039;-76
2024/01/25 04:28:09;;;;;;;7.15;0.90;;;;;;;;;;5102424;28;20032;-75
2024/01/25 04:30:39;;;;;;;7.30;1.52;;;;;;;;;;5102591;28;20657;-75
2024/01/25 04:33:11;;;;;;;10.98;0.90;;;;;;;;;;5102280;28;20071;-76
2024/01/25 04:35:44;;;;;;;7.63;1.17;;;;;;;;;;5102578;28;20525;-76
2024/01/25 04:38:15;;;;;;;13.18;1.83;;;;;;;;;;5102347;28;20039;-75
2024/01/25 04:40:45;;;;;;;5.70;1.00;;;;;;;;;;5102367;28;20047;-75
2024/01/25 04:43:16;;;;;;;5.70;0.77;;;;;;;;;;5103009;28;20043;-76
2024/01/25 04:45:47;;;;;;;7.55;1.30;;;;;;;;;;5102568;28;20035;-75
2024/01/25 04:48:18;;;;;;;8.10;0.80;;;;;;;;;;5101990;28;20054;-75
2024/01/25 04:50:48;;;;;;;4.72;1.02;;;;;;;;;;5102777;28;20043;-75
2024/01/25 04:53:19;;;;;;;8.98;1.10;;;;;;;;;;5105722;28;20074;-76
2024/01/25 04:55:50;;;;;;;8.05;1.00;;;;;;;;;;5107109;28;20043;-76
2024/01/25 04:58:20;;;;;;;14.45;1.45;;;;;;;;;;5106884;28;20723;-76
2024/01/25 05:00:52;;;;;;;5.97;1.17;;;;;;;;;;5107411;28;20047;-76
2024/01/25 05:03:24;;;;;;;5.13;0.95;;;;;;;;;;5106265;28;20048;-75
2024/01/25 05:05:54;;;;;;;6.35;0.93;;;;;;;;;;5106753;28;20047;-75
2024/01/25 05:08:24;;;;;;;8.20;1.02;;;;;;;;;;5105825;28;20051;-76
2024/01/25 05:10:54;;;;;;;11.45;1.30;;;;;;;;;;5106287;28;20776;-76
2024/01/25 05:13:25;;;;;;;6.75;0.80;;;;;;;;;;5106652;28;20411;-76
2024/01/25 05:15:56;;;;;;;9.45;1.42;;;;;;;;;;5106355;28;20053;-76
2024/01/25 05:18:28;;;;;;;10.30;1.38;;;;;;;;;;5105730;28;20504;-75
2024/01/25 05:20:58;;;;;;;17.15;1.90;;;;;;;;;;5105672;28;20056;-76
2024/01/25 05:23:29;;;;;;;9.98;1.10;;;;;;;;;;5106220;28;20051;-75
2024/01/25 05:26:00;;;;;;;6.68;1.20;;;;;;;;;;5105989;28;20525;-75
2024/01/25 05:28:31;;;;;;;6.47;1.52;;;;;;;;;;5106927;28;20059;-75
2024/01/25 05:31:02;;;;;;;7.80;1.10;;;;;;;;;;5106286;28;20418;-74
2024/01/25 05:33:34;;;;;;;7.80;0.90;;;;;;;;;;5105866;28;20040;-76
2024/01/25 05:36:05;;;;;;;6.72;0.90;;;;;;;;;;5105042;28;20525;-75
2024/01/25 05:38:37;;;;;;;16.13;1.13;;;;;;;;;;5105509;28;20047;-76
2024/01/25 05:41:07;;;;;;;5.80;1.42;;;;;;;;;;5106286;28;20379;-75
2024/01/25 05:43:38;;;;;;;10.38;1.25;;;;;;;;;;5105896;28;20047;-76
2024/01/25 05:46:09;;;;;;;9.32;1.00;;;;;;;;;;5104293;28;20047;-75
2024/01/25 05:48:40;;;;;;;12.05;1.25;;;;;;;;;;5105083;28;20058;-74
2024/01/25 05:51:13;;;;;;;11.38;1.08;;;;;;;;;;5105686;28;20048;-75
2024/01/25 05:53:44;;;;;;;13.48;1.80;;;;;;;;;;5105272;28;20055;-75
2024/01/25 05:56:16;;;;;;;5.80;0.90;;;;;;;;;;5105871;28;20494;-75
2024/01/25 05:58:46;;;;;;;10.50;0.95;;;;;;;;;;5104844;28;20051;-74
2024/01/25 06:01:16;;;;;;;7.40;1.10;;;;;;;;;;5105278;28;20059;-74
2024/01/25 06:03:47;;;;;;;13.00;1.88;;;;;;;;;;5104953;28;20040;-75
2024/01/25 06:06:18;;;;;;;9.73;0.90;;;;;;;;;;5105876;28;20048;-75
2024/01/25 06:08:49;;;;;;;7.75;1.50;;;;;;;;;;5103566;28;20039;-74
2024/01/25 06:11:30;;;;;;;6.35;0.90;;;;;;;;;;5104665;28;20102;-75
2024/01/25 06:14:00;;;;;;;7.78;1.00;;;;;;;;;;5104821;28;20047;-74
2024/01/25 06:16:32;;;;;;;7.68;0.90;;;;;;;;;;5104963;28;20063;-74
2024/01/25 06:19:03;;;;;;;13.65;1.30;;;;;;;;;;5105340;28;20054;-76
2024/01/25 06:21:37;;;;;;;15.73;1.02;;;;;;;;;;5105312;28;20054;-74
2024/01/25 06:24:08;;;;;;;9.85;0.93;;;;;;;;;;5105687;28;20402;-76
2024/01/25 06:26:39;;;;;;;7.43;0.77;;;;;;;;;;5103274;28;20059;-75
2024/01/25 06:29:10;;;;;;;4.82;0.85;;;;;;;;;;5104278;28;20410;-75
2024/01/25 06:31:46;;;;;;;8.18;1.20;;;;;;;;;;5105630;28;20043;-76
2024/01/25 06:34:17;;;;;;;3.97;1.25;;;;;;;;;;5102888;28;20055;-76
2024/01/25 06:36:47;;;;;;;10.30;1.35;;;;;;;;;;5105206;28;20048;-75
2024/01/25 06:39:18;;;;;;;6.50;1.42;;;;;;;;;;5105199;28;20414;-76
2024/01/25 06:41:48;;;;;;;3.60;0.85;;;;;;;;;;5104738;28;20503;-76
2024/01/25 06:44:19;;;;;;;6.03;1.27;;;;;;;;;;5104710;28;20043;-75
2024/01/25 06:46:51;;;;;;;6.32;0.88;;;;;;;;;;5102316;28;20058;-76
2024/01/25 06:49:22;;;;;;;4.07;0.68;;;;;;;;;;5104349;28;20044;-76
2024/01/25 06:51:52;;;;;;;5.18;1.00;;;;;;;;;;5104665;28;20402;-75
2024/01/25 06:54:22;;;;;;;6.10;1.00;;;;;;;;;;5104424;28;20048;-76
2024/01/25 06:56:53;;;;;;;10.05;1.05;;;;;;;;;;5104602;28;20414;-75
2024/01/25 06:59:23;;;;;;;3.05;0.73;;;;;;;;;;5103894;28;20588;-76
2024/01/25 07:01:56;;;;;;;5.60;1.05;;;;;;;;;;5104138;28;20052;-75
2024/01/25 07:04:27;;;;;;;5.10;1.15;;;;;;;;;;5104253;28;20486;-75
2024/01/25 07:06:58;;;;;;;7.55;1.15;;;;;;;;;;5104838;28;20039;-75
2024/01/25 07:09:31;;;;;;;6.25;1.20;;;;;;;;;;5103841;28;20422;-75
2024/01/25 07:12:02;;;;;;;3.90;1.10;;;;;;;;;;5103895;28;20102;-75
2024/01/25 07:14:32;;;;;;;3.47;0.75;;;;;;;;;;5102150;28;20517;-75
2024/01/25 07:17:03;;;;;;;7.50;1.17;;;;;;;;;;5104018;28;20052;-75
2024/01/25 07:19:34;;;;;;;5.10;0.85;;;;;;;;;;5103423;28;20499;-77
2024/01/25 07:22:05;;;;;;;4.22;0.82;;;;;;;;;;5103742;28;20052;-75
2024/01/25 07:24:36;;;;;;;3.88;0.98;;;;;;;;;;5103767;28;20051;-76
2024/01/25 07:27:06;;;;;;;9.50;1.20;;;;;;;;;;5103580;28;20043;-74
2024/01/25 07:29:37;;;;;;;9.60;1.05;;;;;;;;;;5102003;28;20055;-76
2024/01/25 07:32:08;;;;;;;4.50;1.00;;;;;;;;;;5103216;28;20044;-75
2024/01/25 07:34:40;;;;;;;9.52;1.10;;;;;;;;;;5103118;28;20047;-75
2024/01/25 07:37:11;;;;;;;5.38;0.65;;;;;;;;;;5103818;28;20053;-75
2024/01/25 07:39:43;;;;;;;11.77;1.27;;;;;;;;;;5103927;28;20410;-76
2024/01/25 07:42:14;;;;;;;8.85;1.13;;;;;;;;;;5103417;28;20097;-74
2024/01/25 07:44:45;;;;;;;7.78;1.10;;;;;;;;;;5103770;28;20059;-75
2024/01/25 07:47:15;;;;;;;5.65;0.70;;;;;;;;;;5103634;28;20047;-76
2024/01/25 07:49:46;;;;;;;8.73;1.30;;;;;;;;;;5103252;28;20425;-75
2024/01/25 07:52:17;;;;;;;10.13;1.10;;;;;;;;;;5103095;28;20455;-75
2024/01/25 07:54:53;;;;;;;11.57;1.38;;;;;;;;;;5103522;28;20036;-76
2024/01/25 07:57:26;;;;;;;7.72;1.05;;;;;;;;;;5103172;28;20047;-75
2024/01/25 07:59:57;;;;;;;5.97;1.30;;;;;;;;;;5100786;28;20052;-75
2024/01/25 08:02:28;;;;;;;4.22;0.73;;;;;;;;;;5102784;28;20201;-76
2024/01/25 08:05:00;;;;;;;4.63;0.70;;;;;;;;;;5102947;28;20517;-75
2024/01/25 08:07:31;;;;;;;4.95;0.77;;;;;;;;;;5101204;28;20051;-75
2024/01/25 08:10:01;;;;;;;9.10;0.88;;;;;;;;;;5103347;28;20040;-76
2024/01/25 08:12:32;;;;;;;7.80;0.70;;;;;;;;;;5102908;28;20047;-76
2024/01/25 08:15:03;;;;;;;10.73;1.23;;;;;;;;;;5103537;28;20048;-76
2024/01/25 08:17:35;;;;;;;4.97;0.90;;;;;;;;;;5103072;28;20048;-76
2024/01/25 08:20:09;;;;;;;3.60;0.82;;;;;;;;;;5101681;28;20817;-74
2024/01/25 08:22:41;;;;;;;7.05;1.23;;;;;;;;;;5102720;28;20059;-76
2024/01/25 08:25:13;;;;;;;5.97;0.80;;;;;;;;;;5102731;28;20492;-76
2024/01/25 08:27:44;;;;;;;3.92;0.88;;;;;;;;;;5102028;28;20072;-75
2024/01/25 08:30:15;;;;;;;8.30;0.73;;;;;;;;;;5103064;28;20410;-76
2024/01/25 08:32:46;;;;;;;3.13;1.42;;;;;;;;;;5103695;28;20398;-76
2024/01/25 08:35:17;;;;;;;5.88;1.00;;;;;;;;;;5103043;28;20121;-75
2024/01/25 08:37:49;;;;;;;4.63;1.05;;;;;;;;;;5102980;28;20046;-75
2024/01/25 08:40:20;;;;;;;7.47;1.13;;;;;;;;;;5102220;28;20044;-75
2024/01/25 08:42:53;;;;;;;4.95;0.95;;;;;;;;;;5102552;28;20042;-75
2024/01/25 08:45:23;;;;;;;4.32;0.85;;;;;;;;;;5102156;28;20051;-75
2024/01/25 08:47:54;;;;;;;9.70;1.15;;;;;;;;;;5102518;28;20055;-75
2024/01/25 08:50:24;;;;;;;7.13;1.30;;;;;;;;;;5102201;28;20051;-74
2024/01/25 08:52:57;;;;;;;4.93;1.30;;;;;;;;;;5102687;28;20047;-75
2024/01/25 08:55:27;;;;;;;6.90;1.20;;;;;;;;;;5101946;28;20048;-76
2024/01/25 08:57:57;;;;;;;6.78;0.85;;;;;;;;;;5102092;28;20043;-76
2024/01/25 09:00:28;;;;;;;5.45;1.00;;;;;;;;;;5102260;28;20073;-76
2024/01/25 09:02:59;;;;;;;6.97;0.98;;;;;;;;;;5102168;28;20043;-75
2024/01/25 09:05:29;;;;;;;2.67;0.80;;;;;;;;;;5102539;28;20044;-76
2024/01/25 09:08:00;;;;;;;4.68;1.05;;;;;;;;;;5102622;28;20516;-76
2024/01/25 09:10:32;;;;;;;7.43;1.13;;;;;;;;;;5102396;28;20048;-76
2024/01/25 09:13:02;;;;;;;5.72;1.23;;;;;;;;;;5101447;28;20406;-75
2024/01/25 09:15:33;;;;;;;10.15;1.20;;;;;;;;;;5101707;28;20040;-75
2024/01/25 09:18:03;;;;;;;3.42;0.90;;;;;;;;;;5101969;28;20426;-76
2024/01/25 09:20:34;;;;;;;9.75;1.55;;;;;;;;;;5102346;28;20052;-75
2024/01/25 09:23:06;;;;;;;7.53;1.30;;;;;;;;;;5102447;28;20043;-75
2024/01/25 09:25:37;;;;;;;4.32;1.20;;;;;;;;;;5101446;28;20052;-75
2024/01/25 09:28:07;;;;;;;7.05;1.65;;;;;;;;;;5102084;28;20039;-75
2024/01/25 09:30:39;;;;;;;4.15;1.35;;;;;;;;;;5102127;28;20561;-75
2024/01/25 09:33:10;;;;;;;9.32;1.30;;;;;;;;;;5102427;28;20044;-76
2024/01/25 09:35:42;;;;;;;3.95;1.38;;;;;;;;;;5102689;28;20517;-76
2024/01/25 09:38:13;;;;;;;6.90;1.38;;;;;;;;;;5104425;28;20039;-74
2024/01/25 09:40:43;;;;;;;7.30;1.38;;;;;;;;;;5105375;28;20521;-75
2024/01/25 09:43:15;;;;;;;5.90;1.52;;;;;;;;;;5105961;28;20051;-78
2024/01/25 09:45:49;;;;;;;4.03;1.13;;;;;;;;;;5106258;28;20051;-76
2024/01/25 09:48:20;;;;;;;6.30;1.73;;;;;;;;;;5105368;28;20043;-76
2024/01/25 09:50:52;;;;;;;6.20;1.30;;;;;;;;;;5105831;28;20063;-76
2024/01/25 09:53:25;;;;;;;5.32;2.17;;;;;;;;;;5105558;28;20498;-75
2024/01/25 09:56:08;;;;;;;5.72;1.42;;;;;;;;;;5105316;28;20943;-75
2024/01/25 09:58:45;;;;;;;13.27;1.70;;;;;;;;;;5105211;28;20413;-76
2024/01/25 10:01:16;;;;;;;9.65;2.35;;;;;;;;;;5105104;28;20043;-76
2024/01/25 10:03:48;;;;;;;4.53;1.25;;;;;;;;;;5105323;28;20045;-75
2024/01/25 10:06:20;;;;;;;8.70;1.15;;;;;;;;;;5106221;28;20047;-75
2024/01/25 10:08:53;;;;;;;2.63;0.88;;;;;;;;;;5105598;28;20048;-75
2024/01/25 10:11:24;;;;;;;5.50;1.30;;;;;;;;;;5104452;28;20051;-77
2024/01/25 10:13:56;;;;;;;6.32;1.05;;;;;;;;;;5105855;28;20047;-75
2024/01/25 10:16:27;;;;;;;5.65;1.38;;;;;;;;;;5105165;28;20042;-76
2024/01/25 10:18:58;;;;;;;5.38;1.38;;;;;;;;;;5105310;28;20047;-75
2024/01/25 10:21:29;;;;;;;13.93;1.45;;;;;;;;;;5105307;28;20035;-75
2024/01/25 10:24:02;;;;;;;5.20;1.55;;;;;;;;;;5105759;28;20047;-75
2024/01/25 10:26:35;;;;;;;8.20;1.15;;;;;;;;;;5103196;27;20058;-75
2024/01/25 10:29:06;;;;;;;6.78;1.00;;;;;;;;;;5105412;28;20482;-77
2024/01/25 10:31:41;;;;;;;7.00;1.15;;;;;;;;;;5103635;28;20495;-75
2024/01/25 10:34:15;;;;;;;3.72;0.60;;;;;;;;;;5104618;28;20040;-78
2024/01/25 10:36:48;;;;;;;8.23;0.77;;;;;;;;;;5104738;28;20044;-74
2024/01/25 10:39:24;;;;;;;7.97;2.08;;;;;;;;;;5104324;28;20052;-77
2024/01/25 10:41:55;;;;;;;5.97;0.95;;;;;;;;;;5104676;28;20118;-75
2024/01/25 10:44:27;;;;;;;9.13;0.95;;;;;;;;;;5104274;28;20056;-75
2024/01/25 10:46:59;;;;;;;10.00;0.98;;;;;;;;;;5105251;28;20047;-74
2024/01/25 10:49:31;;;;;;;6.40;1.15;;;;;;;;;;5103010;28;20051;-74
2024/01/25 10:52:02;;;;;;;8.00;0.90;;;;;;;;;;5103870;28;20490;-74
2024/01/25 10:54:33;;;;;;;5.80;1.00;;;;;;;;;;5104538;28;20044;-74
2024/01/25 10:57:05;;;;;;;3.47;0.68;;;;;;;;;;5104695;28;20043;-76
2024/01/25 10:59:36;;;;;;;2.95;0.70;;;;;;;;;;5104229;28;20063;-75
2024/01/25 11:02:08;;;;;;;8.77;0.80;;;;;;;;;;5104320;28;20051;-77
2024/01/25 11:04:39;;;;;;;12.00;1.13;;;;;;;;;;5104866;28;20402;-75
2024/01/25 11:07:12;;;;;;;6.32;0.95;;;;;;;;;;5104687;28;20044;-74
2024/01/25 11:09:47;;;;;;;7.47;0.82;;;;;;;;;;5103609;28;20051;-75
2024/01/25 11:12:19;;;;;;;9.07;1.10;;;;;;;;;;5103814;28;20044;-75
2024/01/25 11:14:56;;;;;;;5.47;0.70;;;;;;;;;;5104274;28;20055;-74
2024/01/25 11:17:26;;;;;;;5.20;0.68;;;;;;;;;;5104132;28;20050;-75
2024/01/25 11:20:00;;;;;;;8.18;1.10;;;;;;;;;;5104069;28;20066;-75
2024/01/25 11:22:45;;;;;;;5.22;0.70;;;;;;;;;;5104071;28;20051;-78
2024/01/25 11:25:24;;;;;;;7.30;0.90;;;;;;;;;;5102140;28;20039;-76
2024/01/25 11:28:01;;;;;;;8.82;1.20;;;;;;;;;;5103677;28;20391;-75
2024/01/25 11:30:36;;;;;;;6.07;0.85;;;;;;;;;;5103502;28;20055;-76
2024/01/25 11:33:10;;;;;;;6.00;0.80;;;;;;;;;;5103748;28;20049;-76
2024/01/25 11:35:42;;;;;;;7.72;0.80;;;;;;;;;;5104221;28;20047;-74
2024/01/25 11:38:15;;;;;;;4.25;0.63;;;;;;;;;;5103754;28;20055;-75
2024/01/25 11:40:45;;;;;;;6.32;0.88;;;;;;;;;;5103879;28;20043;-75
2024/01/25 11:43:16;;;;;;;6.53;1.10;;;;;;;;;;5102926;28;20044;-75
2024/01/25 11:45:48;;;;;;;6.57;1.00;;;;;;;;;;5103043;28;20047;-76
2024/01/25 11:48:19;;;;;;;3.63;0.73;;;;;;;;;;5103711;28;20494;-75
2024/01/25 11:50:51;;;;;;;4.10;0.60;;;;;;;;;;5103333;28;20051;-79
2024/01/25 11:53:21;;;;;;;11.23;0.95;;;;;;;;;;5103614;28;20074;-76
2024/01/25 11:55:54;;;;;;;5.70;1.17;;;;;;;;;;5103049;28;20047;-76
2024/01/25 11:58:25;;;;;;;4.82;0.70;;;;;;;;;;5103138;28;20398;-78
2024/01/25 12:01:00;;;;;;;8.25;0.70;;;;;;;;;;5103169;28;20616;-76
2024/01/25 12:03:30;;;;;;;5.88;0.70;;;;;;;;;;5103393;28;20048;-75
2024/01/25 12:06:01;;;;;;;10.13;0.88;;;;;;;;;;5103392;28;20047;-76
2024/01/25 12:08:33;;;;;;;8.75;1.00;;;;;;;;;;5102792;28;20547;-75
2024/01/25 12:11:09;;;;;;;5.40;0.77;;;;;;;;;;5103312;28;20035;-74
2024/01/25 12:13:41;;;;;;;4.88;0.80;;;;;;;;;;5103180;28;20047;-75
2024/01/25 12:16:13;;;;;;;6.72;0.80;;;;;;;;;;5103387;28;20047;-76
2024/01/25 12:18:45;;;;;;;7.78;0.90;;;;;;;;;;5102788;28;20043;-78
2024/01/25 12:21:15;;;;;;;7.00;0.73;;;;;;;;;;5102127;28;20055;-77
2024/01/25 12:23:46;;;;;;;3.72;0.80;;;;;;;;;;5102623;28;20051;-76
2024/01/25 12:26:17;;;;;;;4.05;0.63;;;;;;;;;;5103626;28;20052;-74
2024/01/25 12:28:49;;;;;;;3.35;0.47;;;;;;;;;;5102543;28;20521;-81
2024/01/25 12:31:20;;;;;;;4.32;0.60;;;;;;;;;;5102499;28;20493;-76
2024/01/25 12:33:49;;;;;;;6.78;0.75;;;;;;;;;;5102592;28;20035;-75
2024/01/25 12:36:21;;;;;;;3.05;0.60;;;;;;;;;;5102810;28;20035;-77
2024/01/25 12:38:51;;;;;;;6.88;0.90;;;;;;;;;;5102788;28;20044;-74
2024/01/25 12:41:21;;;;;;;6.13;0.80;;;;;;;;;;5103212;28;20406;-76
2024/01/25 12:43:53;;;;;;;4.10;0.60;;;;;;;;;;5101332;28;20543;-76
2024/01/25 12:46:25;;;;;;;6.35;0.90;;;;;;;;;;5102453;28;20054;-75
2024/01/25 12:48:58;;;;;;;6.57;0.70;;;;;;;;;;5102418;28;20050;-76
2024/01/25 12:51:28;;;;;;;5.32;0.55;;;;;;;;;;5102477;28;20056;-75
2024/01/25 12:53:59;;;;;;;5.30;0.60;;;;;;;;;;5101656;28;21258;-77
2024/01/25 12:56:30;;;;;;;3.63;0.60;;;;;;;;;;5101958;28;20047;-76
2024/01/25 12:59:03;;;;;;;5.25;0.75;;;;;;;;;;5101611;28;20407;-76
2024/01/25 13:01:33;;;;;;;3.38;0.60;;;;;;;;;;5102270;28;20047;-76
2024/01/25 13:04:04;;;;;;;2.90;0.70;;;;;;;;;;5102845;28;20502;-76
2024/01/25 13:06:35;;;;;;;4.15;0.60;;;;;;;;;;5101946;28;20063;-75
2024/01/25 13:09:06;;;;;;;4.50;0.57;;;;;;;;;;5102086;28;20487;-76
2024/01/25 13:11:36;;;;;;;2.50;0.50;;;;;;;;;;5102098;28;20051;-76
2024/01/25 13:14:07;;;;;;;3.85;0.55;;;;;;;;;;5105309;28;20052;-75
2024/01/25 13:16:38;;;;;;;4.07;0.60;;;;;;;;;;5106542;28;20474;-76
2024/01/25 13:19:11;;;;;;;4.40;0.65;;;;;;;;;;5106024;28;20039;-78
2024/01/25 13:21:42;;;;;;;2.95;0.70;;;;;;;;;;5105938;28;20482;-77
2024/01/25 13:24:13;;;;;;;4.97;0.77;;;;;;;;;;5105963;28;20054;-75
2024/01/25 13:26:43;;;;;;;5.40;0.75;;;;;;;;;;5105569;28;20044;-75
2024/01/25 13:29:14;;;;;;;2.58;0.50;;;;;;;;;;5106347;28;20047;-75
2024/01/25 13:31:44;;;;;;;3.42;0.63;;;;;;;;;;5106823;28;20059;-76
2024/01/25 13:34:15;;;;;;;3.25;0.60;;;;;;;;;;5105997;28;20404;-75
2024/01/25 13:36:46;;;;;;;2.80;0.50;;;;;;;;;;5105680;28;20492;-75
2024/01/25 13:39:17;;;;;;;5.32;0.70;;;;;;;;;;5105426;28;20047;-84
2024/01/25 13:41:50;;;;;;;3.50;0.60;;;;;;;;;;5105860;28;20040;-76
2024/01/25 13:44:20;;;;;;;3.03;0.68;;;;;;;;;;5105941;28;20040;-76
2024/01/25 13:46:51;;;;;;;3.80;0.70;;;;;;;;;;5104796;27;20071;-75
2024/01/25 13:49:23;;;;;;;4.70;0.60;;;;;;;;;;5105643;28;20050;-75
2024/01/25 13:51:53;;;;;;;5.15;0.95;;;;;;;;;;5105481;28;20413;-75
2024/01/25 13:54:23;;;;;;;1.83;0.45;;;;;;;;;;5106203;28;20502;-86
2024/01/25 13:56:55;;;;;;;4.78;0.80;;;;;;;;;;5107714;28;20048;-85
2024/01/25 13:59:27;;;;;;;6.35;0.88;;;;;;;;;;5105904;28;20051;-75
2024/01/25 14:01:57;;;;;;;5.10;0.63;;;;;;;;;;5105723;28;20055;-76
2024/01/25 14:04:27;;;;;;;2.58;0.50;;;;;;;;;;5105695;28;20044;-75
2024/01/25 14:06:59;;;;;;;6.65;0.70;;;;;;;;;;5105404;28;20425;-77
2024/01/25 14:09:31;;;;;;;5.80;1.30;;;;;;;;;;5105517;28;20054;-75
2024/01/25 14:12:03;;;;;;;4.13;0.70;;;;;;;;;;5105612;28;20043;-75
2024/01/25 14:14:33;;;;;;;3.78;0.60;;;;;;;;;;5105209;28;20050;-76
2024/01/25 14:17:03;;;;;;;4.55;0.60;;;;;;;;;;5105162;28;20509;-77
2024/01/25 14:19:35;;;;;;;4.47;0.60;;;;;;;;;;5103678;28;20051;-76
2024/01/25 14:22:06;;;;;;;2.05;0.50;;;;;;;;;;5104127;28;20054;-74
2024/01/25 14:24:56;;;;;;;5.60;0.45;;;;;;;;;;5102607;28;20453;-76
2024/01/25 14:27:27;;;;;;;8.52;0.70;;;;;;;;;;5104675;28;20055;-77
2024/01/25 14:29:59;;;;;;;6.40;1.00;;;;;;;;;;5105638;28;20062;-75
2024/01/25 14:32:31;;;;;;;4.03;0.63;;;;;;;;;;5104295;28;20623;-76
2024/01/25 14:35:03;;;;;;;7.75;1.17;;;;;;;;;;5104788;28;20035;-76
2024/01/25 14:37:34;;;;;;;3.00;0.73;;;;;;;;;;5105311;28;20048;-75
2024/01/25 14:40:06;;;;;;;2.80;0.57;;;;;;;;;;5104722;28;20110;-75
2024/01/25 14:43:01;;;;;;;4.20;0.60;;;;;;;;;;5104667;28;20076;-77
2024/01/25 14:45:35;;;;;;;3.88;0.80;;;;;;;;;;5105403;28;20051;-74
2024/01/25 14:48:06;;;;;;;5.78;0.77;;;;;;;;;;5105018;28;20051;-76
2024/01/25 14:50:36;;;;;;;2.10;0.43;;;;;;;;;;5105090;28;20062;-76
2024/01/25 14:53:07;;;;;;;2.85;0.70;;;;;;;;;;5104581;28;20042;-75
2024/01/25 14:55:39;;;;;;;3.13;0.70;;;;;;;;;;5103632;27;20702;-76
2024/01/25 14:58:10;;;;;;;3.80;0.63;;;;;;;;;;5104146;28;20043;-76
2024/01/25 15:00:40;;;;;;;6.47;1.00;;;;;;;;;;5104463;28;20510;-76
2024/01/25 15:03:11;;;;;;;3.55;0.98;;;;;;;;;;5103314;28;20043;-76
2024/01/25 15:05:42;;;;;;;4.40;0.70;;;;;;;;;;5104143;28;20051;-77
2024/01/25 15:08:12;;;;;;;5.38;0.88;;;;;;;;;;5104554;28;20044;-77